sensor_id;sensor_type;location;lat;lon;timestamp;P1;durP1;ratioP1;P2;durP2;ratioP2
45296;SDS011;31040;51.622;10.420;2022-10-10T00:01:12;2.70;;;1.67;;
45296;SDS011;31040;51.622;10.420;2022-10-10T00:03:39;4.55;;;2.10;;
45296;SDS011;31040;51.622;10.420;2022-10-10T00:06:07;4.78;;;2.60;;
45296;SDS011;31040;51.622;10.420;2022-10-10T00:08:35;3.72;;;2.10;;
45296;SDS011;31040;51.622;10.420;2022-10-10T00:11:03;3.50;;;2.15;;
45296;SDS011;31040;51.622;10.420;2022-10-10T00:13:31;2.05;;;1.85;;
45296;SDS011;31040;51.622;10.420;2022-10-10T00:15:59;3.97;;;2.00;;
45296;SDS011;31040;51.622;10.420;2022-10-10T00:18:27;4.43;;;2.30;;
45296;SDS011;31040;51.622;10.420;2022-10-10T00:20:55;2.78;;;1.95;;
45296;SDS011;31040;51.622;10.420;2022-10-10T00:23:23;4.10;;;2.45;;
45296;SDS011;31040;51.622;10.420;2022-10-10T00:25:51;3.17;;;2.10;;
45296;SDS011;31040;51.622;10.420;2022-10-10T00:28:19;3.58;;;2.42;;
45296;SDS011;31040;51.622;10.420;2022-10-10T00:30:46;6.85;;;2.35;;
45296;SDS011;31040;51.622;10.420;2022-10-10T00:33:14;6.22;;;2.22;;
45296;SDS011;31040;51.622;10.420;2022-10-10T00:35:42;3.85;;;2.40;;
45296;SDS011;31040;51.622;10.420;2022-10-10T00:38:10;5.22;;;2.35;;
45296;SDS011;31040;51.622;10.420;2022-10-10T00:41:11;4.45;;;1.92;;
45296;SDS011;31040;51.622;10.420;2022-10-10T00:43:32;3.95;;;2.03;;
45296;SDS011;31040;51.622;10.420;2022-10-10T00:46:00;3.60;;;2.38;;
45296;SDS011;31040;51.622;10.420;2022-10-10T00:48:31;5.25;;;2.22;;
45296;SDS011;31040;51.622;10.420;2022-10-10T00:51:02;6.25;;;3.45;;
45296;SDS011;31040;51.622;10.420;2022-10-10T00:53:33;3.58;;;1.83;;
45296;SDS011;31040;51.622;10.420;2022-10-10T00:56:03;4.18;;;2.08;;
45296;SDS011;31040;51.622;10.420;2022-10-10T00:58:30;3.05;;;1.90;;
45296;SDS011;31040;51.622;10.420;2022-10-10T01:00:59;5.57;;;2.15;;
45296;SDS011;31040;51.622;10.420;2022-10-10T01:03:27;3.97;;;2.13;;
45296;SDS011;31040;51.622;10.420;2022-10-10T01:05:54;5.07;;;2.65;;
45296;SDS011;31040;51.622;10.420;2022-10-10T01:08:22;4.10;;;1.92;;
45296;SDS011;31040;51.622;10.420;2022-10-10T01:10:57;4.95;;;1.88;;
45296;SDS011;31040;51.622;10.420;2022-10-10T01:16:23;2.28;;;1.90;;
45296;SDS011;31040;51.622;10.420;2022-10-10T01:29:44;2.63;;;2.30;;
45296;SDS011;31040;51.622;10.420;2022-10-10T01:32:21;5.82;;;2.13;;
45296;SDS011;31040;51.622;10.420;2022-10-10T01:35:05;5.50;;;2.00;;
45296;SDS011;31040;51.622;10.420;2022-10-10T01:40:10;3.13;;;1.85;;
45296;SDS011;31040;51.622;10.420;2022-10-10T01:45:16;4.93;;;2.00;;
45296;SDS011;31040;51.622;10.420;2022-10-10T01:47:43;3.70;;;1.95;;
45296;SDS011;31040;51.622;10.420;2022-10-10T01:50:11;3.50;;;1.83;;
45296;SDS011;31040;51.622;10.420;2022-10-10T01:57:43;4.97;;;1.88;;
45296;SDS011;31040;51.622;10.420;2022-10-10T02:00:15;3.47;;;2.13;;
45296;SDS011;31040;51.622;10.420;2022-10-10T02:05:21;4.10;;;2.25;;
45296;SDS011;31040;51.622;10.420;2022-10-10T02:10:24;1.83;;;1.60;;
45296;SDS011;31040;51.622;10.420;2022-10-10T02:12:53;1.67;;;1.58;;
45296;SDS011;31040;51.622;10.420;2022-10-10T02:15:22;3.60;;;1.90;;
45296;SDS011;31040;51.622;10.420;2022-10-10T02:17:50;3.67;;;2.00;;
45296;SDS011;31040;51.622;10.420;2022-10-10T02:20:20;2.75;;;1.33;;
45296;SDS011;31040;51.622;10.420;2022-10-10T02:22:49;3.03;;;1.88;;
45296;SDS011;31040;51.622;10.420;2022-10-10T02:25:20;4.45;;;2.10;;
45296;SDS011;31040;51.622;10.420;2022-10-10T02:30:21;2.33;;;2.00;;
45296;SDS011;31040;51.622;10.420;2022-10-10T02:32:57;4.40;;;2.40;;
45296;SDS011;31040;51.622;10.420;2022-10-10T02:35:31;2.08;;;1.80;;
45296;SDS011;31040;51.622;10.420;2022-10-10T02:38:00;2.47;;;1.73;;
45296;SDS011;31040;51.622;10.420;2022-10-10T02:40:32;3.70;;;2.00;;
45296;SDS011;31040;51.622;10.420;2022-10-10T02:43:01;2.47;;;1.98;;
45296;SDS011;31040;51.622;10.420;2022-10-10T02:45:30;5.40;;;2.10;;
45296;SDS011;31040;51.622;10.420;2022-10-10T02:47:59;2.95;;;2.00;;
45296;SDS011;31040;51.622;10.420;2022-10-10T02:50:29;5.07;;;2.22;;
45296;SDS011;31040;51.622;10.420;2022-10-10T02:52:57;4.10;;;2.42;;
45296;SDS011;31040;51.622;10.420;2022-10-10T02:55:24;2.70;;;2.00;;
45296;SDS011;31040;51.622;10.420;2022-10-10T02:57:53;3.08;;;1.95;;
45296;SDS011;31040;51.622;10.420;2022-10-10T03:00:20;2.20;;;1.80;;
45296;SDS011;31040;51.622;10.420;2022-10-10T03:02:48;5.65;;;2.10;;
45296;SDS011;31040;51.622;10.420;2022-10-10T03:05:16;2.25;;;1.70;;
45296;SDS011;31040;51.622;10.420;2022-10-10T03:07:43;4.55;;;1.90;;
45296;SDS011;31040;51.622;10.420;2022-10-10T03:10:11;2.22;;;1.73;;
45296;SDS011;31040;51.622;10.420;2022-10-10T03:12:38;2.30;;;1.88;;
45296;SDS011;31040;51.622;10.420;2022-10-10T03:15:06;5.22;;;1.90;;
45296;SDS011;31040;51.622;10.420;2022-10-10T03:17:36;4.18;;;2.70;;
45296;SDS011;31040;51.622;10.420;2022-10-10T03:20:04;3.97;;;2.00;;
45296;SDS011;31040;51.622;10.420;2022-10-10T03:22:32;3.80;;;2.17;;
45296;SDS011;31040;51.622;10.420;2022-10-10T03:24:59;3.72;;;2.13;;
45296;SDS011;31040;51.622;10.420;2022-10-10T03:27:27;3.80;;;2.28;;
45296;SDS011;31040;51.622;10.420;2022-10-10T03:29:55;3.03;;;2.28;;
45296;SDS011;31040;51.622;10.420;2022-10-10T03:32:22;6.90;;;2.50;;
45296;SDS011;31040;51.622;10.420;2022-10-10T03:34:50;6.20;;;2.63;;
45296;SDS011;31040;51.622;10.420;2022-10-10T03:37:17;2.67;;;2.20;;
45296;SDS011;31040;51.622;10.420;2022-10-10T03:39:45;4.97;;;2.58;;
45296;SDS011;31040;51.622;10.420;2022-10-10T03:42:13;3.05;;;2.70;;
45296;SDS011;31040;51.622;10.420;2022-10-10T03:44:41;2.72;;;2.33;;
45296;SDS011;31040;51.622;10.420;2022-10-10T03:47:09;3.05;;;2.60;;
45296;SDS011;31040;51.622;10.420;2022-10-10T03:49:36;4.53;;;3.20;;
45296;SDS011;31040;51.622;10.420;2022-10-10T03:52:03;5.53;;;3.03;;
45296;SDS011;31040;51.622;10.420;2022-10-10T03:54:32;4.82;;;3.10;;
45296;SDS011;31040;51.622;10.420;2022-10-10T03:57:00;5.75;;;3.03;;
45296;SDS011;31040;51.622;10.420;2022-10-10T03:59:28;2.88;;;2.60;;
45296;SDS011;31040;51.622;10.420;2022-10-10T04:01:55;4.80;;;2.67;;
45296;SDS011;31040;51.622;10.420;2022-10-10T04:04:23;3.55;;;2.15;;
45296;SDS011;31040;51.622;10.420;2022-10-10T04:06:52;2.88;;;2.60;;
45296;SDS011;31040;51.622;10.420;2022-10-10T04:09:20;4.90;;;2.60;;
45296;SDS011;31040;51.622;10.420;2022-10-10T04:11:49;5.30;;;2.30;;
45296;SDS011;31040;51.622;10.420;2022-10-10T04:14:16;4.20;;;2.30;;
45296;SDS011;31040;51.622;10.420;2022-10-10T04:16:44;4.10;;;2.65;;
45296;SDS011;31040;51.622;10.420;2022-10-10T04:19:13;3.22;;;2.08;;
45296;SDS011;31040;51.622;10.420;2022-10-10T04:21:40;5.10;;;2.58;;
45296;SDS011;31040;51.622;10.420;2022-10-10T04:24:09;3.45;;;1.95;;
45296;SDS011;31040;51.622;10.420;2022-10-10T04:26:36;2.45;;;2.25;;
45296;SDS011;31040;51.622;10.420;2022-10-10T04:29:04;3.83;;;2.83;;
45296;SDS011;31040;51.622;10.420;2022-10-10T04:31:32;6.50;;;3.13;;
45296;SDS011;31040;51.622;10.420;2022-10-10T04:33:59;8.07;;;3.10;;
45296;SDS011;31040;51.622;10.420;2022-10-10T04:36:27;2.85;;;2.22;;
45296;SDS011;31040;51.622;10.420;2022-10-10T04:38:55;4.00;;;2.50;;
45296;SDS011;31040;51.622;10.420;2022-10-10T04:41:22;10.90;;;4.10;;
45296;SDS011;31040;51.622;10.420;2022-10-10T04:43:50;5.85;;;2.97;;
45296;SDS011;31040;51.622;10.420;2022-10-10T04:46:18;4.38;;;2.50;;
45296;SDS011;31040;51.622;10.420;2022-10-10T04:48:46;2.78;;;2.30;;
45296;SDS011;31040;51.622;10.420;2022-10-10T04:51:14;4.05;;;2.95;;
45296;SDS011;31040;51.622;10.420;2022-10-10T04:53:41;2.42;;;2.10;;
45296;SDS011;31040;51.622;10.420;2022-10-10T04:56:15;2.72;;;2.40;;
45296;SDS011;31040;51.622;10.420;2022-10-10T04:58:44;4.63;;;2.33;;
45296;SDS011;31040;51.622;10.420;2022-10-10T05:01:12;3.97;;;2.40;;
45296;SDS011;31040;51.622;10.420;2022-10-10T05:03:40;3.38;;;2.60;;
45296;SDS011;31040;51.622;10.420;2022-10-10T05:06:08;3.88;;;2.40;;
45296;SDS011;31040;51.622;10.420;2022-10-10T05:08:35;4.07;;;2.88;;
45296;SDS011;31040;51.622;10.420;2022-10-10T05:11:05;6.63;;;2.90;;
45296;SDS011;31040;51.622;10.420;2022-10-10T05:13:33;3.83;;;2.60;;
45296;SDS011;31040;51.622;10.420;2022-10-10T05:16:01;3.75;;;2.40;;
45296;SDS011;31040;51.622;10.420;2022-10-10T05:18:29;3.92;;;2.65;;
45296;SDS011;31040;51.622;10.420;2022-10-10T05:20:57;4.97;;;2.67;;
45296;SDS011;31040;51.622;10.420;2022-10-10T05:23:29;4.00;;;2.85;;
45296;SDS011;31040;51.622;10.420;2022-10-10T05:25:57;3.75;;;2.80;;
45296;SDS011;31040;51.622;10.420;2022-10-10T05:28:25;5.38;;;3.58;;
45296;SDS011;31040;51.622;10.420;2022-10-10T05:30:52;3.70;;;2.60;;
45296;SDS011;31040;51.622;10.420;2022-10-10T05:33:20;8.55;;;3.05;;
45296;SDS011;31040;51.622;10.420;2022-10-10T05:35:47;3.70;;;2.58;;
45296;SDS011;31040;51.622;10.420;2022-10-10T05:38:15;4.30;;;2.90;;
45296;SDS011;31040;51.622;10.420;2022-10-10T05:40:42;3.97;;;3.08;;
45296;SDS011;31040;51.622;10.420;2022-10-10T05:43:10;5.28;;;4.05;;
45296;SDS011;31040;51.622;10.420;2022-10-10T05:45:41;8.15;;;4.20;;
45296;SDS011;31040;51.622;10.420;2022-10-10T05:48:08;3.75;;;2.50;;
45296;SDS011;31040;51.622;10.420;2022-10-10T05:50:36;9.60;;;2.97;;
45296;SDS011;31040;51.622;10.420;2022-10-10T05:53:05;5.35;;;3.35;;
45296;SDS011;31040;51.622;10.420;2022-10-10T05:55:33;5.18;;;2.88;;
45296;SDS011;31040;51.622;10.420;2022-10-10T05:58:02;4.18;;;3.38;;
45296;SDS011;31040;51.622;10.420;2022-10-10T06:00:30;5.43;;;3.45;;
45296;SDS011;31040;51.622;10.420;2022-10-10T06:02:58;8.80;;;3.95;;
45296;SDS011;31040;51.622;10.420;2022-10-10T06:05:25;5.95;;;3.40;;
45296;SDS011;31040;51.622;10.420;2022-10-10T06:07:53;4.57;;;3.88;;
45296;SDS011;31040;51.622;10.420;2022-10-10T06:10:39;5.47;;;3.92;;
45296;SDS011;31040;51.622;10.420;2022-10-10T06:13:08;4.40;;;3.40;;
45296;SDS011;31040;51.622;10.420;2022-10-10T06:15:36;4.55;;;4.00;;
45296;SDS011;31040;51.622;10.420;2022-10-10T06:18:04;8.45;;;3.35;;
45296;SDS011;31040;51.622;10.420;2022-10-10T06:20:33;4.22;;;3.40;;
45296;SDS011;31040;51.622;10.420;2022-10-10T06:23:01;4.28;;;3.55;;
45296;SDS011;31040;51.622;10.420;2022-10-10T06:25:28;7.10;;;4.00;;
45296;SDS011;31040;51.622;10.420;2022-10-10T06:28:06;5.93;;;3.75;;
45296;SDS011;31040;51.622;10.420;2022-10-10T06:30:37;4.78;;;3.47;;
45296;SDS011;31040;51.622;10.420;2022-10-10T06:33:05;4.38;;;3.50;;
45296;SDS011;31040;51.622;10.420;2022-10-10T06:35:37;6.50;;;4.50;;
45296;SDS011;31040;51.622;10.420;2022-10-10T06:38:04;6.28;;;4.28;;
45296;SDS011;31040;51.622;10.420;2022-10-10T06:40:32;6.60;;;4.28;;
45296;SDS011;31040;51.622;10.420;2022-10-10T06:43:00;5.85;;;3.92;;
45296;SDS011;31040;51.622;10.420;2022-10-10T06:45:28;7.07;;;3.40;;
45296;SDS011;31040;51.622;10.420;2022-10-10T06:47:56;5.80;;;3.83;;
45296;SDS011;31040;51.622;10.420;2022-10-10T06:50:23;10.10;;;3.78;;
45296;SDS011;31040;51.622;10.420;2022-10-10T06:52:51;5.07;;;3.63;;
45296;SDS011;31040;51.622;10.420;2022-10-10T06:55:19;3.65;;;3.25;;
45296;SDS011;31040;51.622;10.420;2022-10-10T06:57:46;8.32;;;3.92;;
45296;SDS011;31040;51.622;10.420;2022-10-10T07:00:14;7.25;;;3.90;;
45296;SDS011;31040;51.622;10.420;2022-10-10T07:02:43;7.53;;;4.63;;
45296;SDS011;31040;51.622;10.420;2022-10-10T07:05:11;7.32;;;3.95;;
45296;SDS011;31040;51.622;10.420;2022-10-10T07:07:39;5.30;;;4.45;;
45296;SDS011;31040;51.622;10.420;2022-10-10T07:10:06;6.10;;;3.75;;
45296;SDS011;31040;51.622;10.420;2022-10-10T07:12:35;7.68;;;4.13;;
45296;SDS011;31040;51.622;10.420;2022-10-10T07:15:10;19.40;;;4.35;;
45296;SDS011;31040;51.622;10.420;2022-10-10T07:17:37;5.30;;;3.60;;
45296;SDS011;31040;51.622;10.420;2022-10-10T07:20:05;5.53;;;3.72;;
45296;SDS011;31040;51.622;10.420;2022-10-10T07:22:32;6.88;;;3.22;;
45296;SDS011;31040;51.622;10.420;2022-10-10T07:25:00;5.78;;;3.15;;
45296;SDS011;31040;51.622;10.420;2022-10-10T07:27:27;7.72;;;4.10;;
45296;SDS011;31040;51.622;10.420;2022-10-10T07:29:55;5.80;;;3.30;;
45296;SDS011;31040;51.622;10.420;2022-10-10T07:32:23;7.82;;;3.97;;
45296;SDS011;31040;51.622;10.420;2022-10-10T07:34:50;14.07;;;4.20;;
45296;SDS011;31040;51.622;10.420;2022-10-10T07:37:19;7.55;;;3.65;;
45296;SDS011;31040;51.622;10.420;2022-10-10T07:39:46;4.28;;;3.28;;
45296;SDS011;31040;51.622;10.420;2022-10-10T07:42:16;6.30;;;3.65;;
45296;SDS011;31040;51.622;10.420;2022-10-10T07:44:44;5.78;;;3.42;;
45296;SDS011;31040;51.622;10.420;2022-10-10T07:47:13;5.95;;;3.47;;
45296;SDS011;31040;51.622;10.420;2022-10-10T07:49:40;6.22;;;4.25;;
45296;SDS011;31040;51.622;10.420;2022-10-10T07:52:07;6.13;;;3.47;;
45296;SDS011;31040;51.622;10.420;2022-10-10T07:54:35;5.35;;;3.83;;
45296;SDS011;31040;51.622;10.420;2022-10-10T07:57:02;7.65;;;4.20;;
45296;SDS011;31040;51.622;10.420;2022-10-10T07:59:31;4.43;;;3.72;;
45296;SDS011;31040;51.622;10.420;2022-10-10T08:01:58;6.72;;;3.85;;
45296;SDS011;31040;51.622;10.420;2022-10-10T08:04:26;7.30;;;4.10;;
45296;SDS011;31040;51.622;10.420;2022-10-10T08:06:53;5.88;;;3.97;;
45296;SDS011;31040;51.622;10.420;2022-10-10T08:09:21;6.43;;;3.70;;
45296;SDS011;31040;51.622;10.420;2022-10-10T08:11:49;5.70;;;3.92;;
45296;SDS011;31040;51.622;10.420;2022-10-10T08:14:17;4.78;;;3.15;;
45296;SDS011;31040;51.622;10.420;2022-10-10T08:16:44;6.03;;;3.17;;
45296;SDS011;31040;51.622;10.420;2022-10-10T08:19:12;4.22;;;3.08;;
45296;SDS011;31040;51.622;10.420;2022-10-10T08:21:40;5.68;;;2.90;;
45296;SDS011;31040;51.622;10.420;2022-10-10T08:24:07;5.28;;;2.60;;
45296;SDS011;31040;51.622;10.420;2022-10-10T08:26:35;3.92;;;3.00;;
45296;SDS011;31040;51.622;10.420;2022-10-10T08:29:02;5.30;;;3.13;;
45296;SDS011;31040;51.622;10.420;2022-10-10T08:31:30;3.50;;;2.50;;
45296;SDS011;31040;51.622;10.420;2022-10-10T08:33:57;6.70;;;2.65;;
45296;SDS011;31040;51.622;10.420;2022-10-10T08:36:26;4.63;;;2.70;;
45296;SDS011;31040;51.622;10.420;2022-10-10T08:38:53;3.42;;;2.80;;
45296;SDS011;31040;51.622;10.420;2022-10-10T08:43:56;4.32;;;2.55;;
45296;SDS011;31040;51.622;10.420;2022-10-10T08:48:58;5.43;;;2.05;;
45296;SDS011;31040;51.622;10.420;2022-10-10T08:51:30;4.03;;;3.35;;
45296;SDS011;31040;51.622;10.420;2022-10-10T08:54:00;3.67;;;2.40;;
45296;SDS011;31040;51.622;10.420;2022-10-10T08:56:30;5.43;;;3.05;;
45296;SDS011;31040;51.622;10.420;2022-10-10T08:59:19;3.80;;;2.65;;
45296;SDS011;31040;51.622;10.420;2022-10-10T09:01:48;5.00;;;2.58;;
45296;SDS011;31040;51.622;10.420;2022-10-10T09:04:36;3.28;;;2.83;;
45296;SDS011;31040;51.622;10.420;2022-10-10T09:17:42;4.15;;;2.72;;
45296;SDS011;31040;51.622;10.420;2022-10-10T09:22:50;4.50;;;2.83;;
45296;SDS011;31040;51.622;10.420;2022-10-10T09:25:26;4.05;;;2.50;;
45296;SDS011;31040;51.622;10.420;2022-10-10T09:28:00;5.22;;;2.58;;
45296;SDS011;31040;51.622;10.420;2022-10-10T09:30:30;4.50;;;2.42;;
45296;SDS011;31040;51.622;10.420;2022-10-10T09:33:05;5.43;;;2.80;;
45296;SDS011;31040;51.622;10.420;2022-10-10T09:35:36;6.57;;;3.40;;
45296;SDS011;31040;51.622;10.420;2022-10-10T09:40:36;3.13;;;2.53;;
45296;SDS011;31040;51.622;10.420;2022-10-10T09:43:13;3.17;;;2.78;;
45296;SDS011;31040;51.622;10.420;2022-10-10T09:45:46;3.38;;;2.78;;
45296;SDS011;31040;51.622;10.420;2022-10-10T09:48:16;5.35;;;2.80;;
45296;SDS011;31040;51.622;10.420;2022-10-10T09:50:44;3.40;;;3.03;;
45296;SDS011;31040;51.622;10.420;2022-10-10T09:53:12;6.60;;;2.88;;
45296;SDS011;31040;51.622;10.420;2022-10-10T09:55:41;3.13;;;2.60;;
45296;SDS011;31040;51.622;10.420;2022-10-10T10:00:42;5.90;;;3.53;;
45296;SDS011;31040;51.622;10.420;2022-10-10T10:08:38;4.28;;;2.90;;
45296;SDS011;31040;51.622;10.420;2022-10-10T10:11:07;3.78;;;2.58;;
45296;SDS011;31040;51.622;10.420;2022-10-10T10:13:46;3.97;;;3.08;;
45296;SDS011;31040;51.622;10.420;2022-10-10T10:16:21;4.80;;;2.80;;
45296;SDS011;31040;51.622;10.420;2022-10-10T10:18:55;25.00;;;4.05;;
45296;SDS011;31040;51.622;10.420;2022-10-10T10:21:22;5.18;;;3.15;;
45296;SDS011;31040;51.622;10.420;2022-10-10T10:26:26;4.43;;;3.13;;
45296;SDS011;31040;51.622;10.420;2022-10-10T10:28:54;5.30;;;3.03;;
45296;SDS011;31040;51.622;10.420;2022-10-10T10:46:59;3.38;;;2.33;;
45296;SDS011;31040;51.622;10.420;2022-10-10T10:49:43;3.72;;;3.13;;
45296;SDS011;31040;51.622;10.420;2022-10-10T10:57:26;3.67;;;2.92;;
45296;SDS011;31040;51.622;10.420;2022-10-10T11:00:12;4.78;;;3.08;;
45296;SDS011;31040;51.622;10.420;2022-10-10T11:03:17;4.10;;;2.65;;
45296;SDS011;31040;51.622;10.420;2022-10-10T11:06:22;5.80;;;3.10;;
45296;SDS011;31040;51.622;10.420;2022-10-10T11:11:37;8.35;;;2.70;;
45296;SDS011;31040;51.622;10.420;2022-10-10T11:16:46;3.97;;;3.13;;
45296;SDS011;31040;51.622;10.420;2022-10-10T11:24:19;3.92;;;2.47;;
45296;SDS011;31040;51.622;10.420;2022-10-10T11:26:50;3.75;;;2.30;;
45296;SDS011;31040;51.622;10.420;2022-10-10T11:29:23;3.80;;;2.63;;
45296;SDS011;31040;51.622;10.420;2022-10-10T11:32:11;4.28;;;2.80;;
45296;SDS011;31040;51.622;10.420;2022-10-10T11:34:42;6.03;;;2.67;;
45296;SDS011;31040;51.622;10.420;2022-10-10T11:37:13;6.13;;;2.70;;
45296;SDS011;31040;51.622;10.420;2022-10-10T11:40:04;4.57;;;2.45;;
45296;SDS011;31040;51.622;10.420;2022-10-10T11:45:00;5.95;;;2.90;;
45296;SDS011;31040;51.622;10.420;2022-10-10T11:47:39;7.60;;;2.67;;
45296;SDS011;31040;51.622;10.420;2022-10-10T11:50:11;7.68;;;3.28;;
45296;SDS011;31040;51.622;10.420;2022-10-10T11:58:29;7.82;;;3.30;;
45296;SDS011;31040;51.622;10.420;2022-10-10T12:01:00;4.65;;;2.65;;
45296;SDS011;31040;51.622;10.420;2022-10-10T12:03:30;3.33;;;2.35;;
45296;SDS011;31040;51.622;10.420;2022-10-10T12:06:03;5.18;;;2.90;;
45296;SDS011;31040;51.622;10.420;2022-10-10T12:08:35;16.10;;;3.78;;
45296;SDS011;31040;51.622;10.420;2022-10-10T12:11:05;4.82;;;2.22;;
45296;SDS011;31040;51.622;10.420;2022-10-10T12:13:37;4.70;;;2.58;;
45296;SDS011;31040;51.622;10.420;2022-10-10T12:16:17;3.80;;;2.92;;
45296;SDS011;31040;51.622;10.420;2022-10-10T12:18:53;4.63;;;2.70;;
45296;SDS011;31040;51.622;10.420;2022-10-10T12:21:23;12.50;;;4.10;;
45296;SDS011;31040;51.622;10.420;2022-10-10T12:34:41;7.65;;;3.10;;
45296;SDS011;31040;51.622;10.420;2022-10-10T12:37:19;6.88;;;2.50;;
45296;SDS011;31040;51.622;10.420;2022-10-10T12:42:38;8.35;;;2.33;;
45296;SDS011;31040;51.622;10.420;2022-10-10T12:47:52;5.97;;;2.72;;
45296;SDS011;31040;51.622;10.420;2022-10-10T12:50:39;4.78;;;2.30;;
45296;SDS011;31040;51.622;10.420;2022-10-10T12:53:17;7.38;;;2.55;;
45296;SDS011;31040;51.622;10.420;2022-10-10T12:55:49;6.85;;;2.70;;
45296;SDS011;31040;51.622;10.420;2022-10-10T13:01:25;6.45;;;2.75;;
45296;SDS011;31040;51.622;10.420;2022-10-10T13:03:54;4.28;;;2.28;;
45296;SDS011;31040;51.622;10.420;2022-10-10T13:08:59;3.00;;;2.13;;
45296;SDS011;31040;51.622;10.420;2022-10-10T13:11:29;5.28;;;2.88;;
45296;SDS011;31040;51.622;10.420;2022-10-10T13:13:56;4.07;;;2.78;;
45296;SDS011;31040;51.622;10.420;2022-10-10T13:16:25;3.33;;;2.38;;
45296;SDS011;31040;51.622;10.420;2022-10-10T13:18:59;6.60;;;2.70;;
45296;SDS011;31040;51.622;10.420;2022-10-10T13:21:30;7.38;;;2.75;;
45296;SDS011;31040;51.622;10.420;2022-10-10T13:24:00;5.47;;;2.53;;
45296;SDS011;31040;51.622;10.420;2022-10-10T13:26:33;4.78;;;2.75;;
45296;SDS011;31040;51.622;10.420;2022-10-10T13:31:44;4.25;;;2.22;;
45296;SDS011;31040;51.622;10.420;2022-10-10T13:34:13;5.50;;;3.15;;
45296;SDS011;31040;51.622;10.420;2022-10-10T13:36:42;6.38;;;2.83;;
45296;SDS011;31040;51.622;10.420;2022-10-10T13:39:14;4.53;;;2.17;;
45296;SDS011;31040;51.622;10.420;2022-10-10T13:41:46;3.53;;;2.30;;
45296;SDS011;31040;51.622;10.420;2022-10-10T13:44:15;5.78;;;2.42;;
45296;SDS011;31040;51.622;10.420;2022-10-10T13:46:47;4.35;;;2.80;;
45296;SDS011;31040;51.622;10.420;2022-10-10T13:49:32;4.13;;;2.47;;
45296;SDS011;31040;51.622;10.420;2022-10-10T13:57:04;6.13;;;2.92;;
45296;SDS011;31040;51.622;10.420;2022-10-10T13:59:35;4.65;;;3.00;;
45296;SDS011;31040;51.622;10.420;2022-10-10T14:02:03;7.93;;;3.00;;
45296;SDS011;31040;51.622;10.420;2022-10-10T14:07:21;5.00;;;3.45;;
45296;SDS011;31040;51.622;10.420;2022-10-10T14:09:54;4.60;;;3.10;;
45296;SDS011;31040;51.622;10.420;2022-10-10T14:14:53;6.00;;;3.00;;
45296;SDS011;31040;51.622;10.420;2022-10-10T14:17:21;6.47;;;2.67;;
45296;SDS011;31040;51.622;10.420;2022-10-10T14:19:52;6.65;;;3.08;;
45296;SDS011;31040;51.622;10.420;2022-10-10T14:22:20;7.55;;;2.45;;
45296;SDS011;31040;51.622;10.420;2022-10-10T14:24:48;7.80;;;2.55;;
45296;SDS011;31040;51.622;10.420;2022-10-10T14:29:45;5.00;;;2.70;;
45296;SDS011;31040;51.622;10.420;2022-10-10T14:32:13;4.55;;;2.47;;
45296;SDS011;31040;51.622;10.420;2022-10-10T14:34:41;6.05;;;2.70;;
45296;SDS011;31040;51.622;10.420;2022-10-10T14:37:19;6.00;;;2.83;;
45296;SDS011;31040;51.622;10.420;2022-10-10T14:39:48;9.70;;;2.97;;
45296;SDS011;31040;51.622;10.420;2022-10-10T14:42:19;8.32;;;3.33;;
45296;SDS011;31040;51.622;10.420;2022-10-10T14:44:47;4.00;;;2.42;;
45296;SDS011;31040;51.622;10.420;2022-10-10T14:47:22;5.90;;;3.13;;
45296;SDS011;31040;51.622;10.420;2022-10-10T14:49:53;7.07;;;2.60;;
45296;SDS011;31040;51.622;10.420;2022-10-10T14:52:23;7.60;;;2.80;;
45296;SDS011;31040;51.622;10.420;2022-10-10T14:54:50;7.10;;;3.05;;
45296;SDS011;31040;51.622;10.420;2022-10-10T14:57:17;7.15;;;2.50;;
45296;SDS011;31040;51.622;10.420;2022-10-10T14:59:46;6.07;;;2.65;;
45296;SDS011;31040;51.622;10.420;2022-10-10T15:02:16;5.15;;;2.80;;
45296;SDS011;31040;51.622;10.420;2022-10-10T15:04:44;7.88;;;3.85;;
45296;SDS011;31040;51.622;10.420;2022-10-10T15:07:11;5.90;;;2.92;;
45296;SDS011;31040;51.622;10.420;2022-10-10T15:09:44;5.70;;;2.72;;
45296;SDS011;31040;51.622;10.420;2022-10-10T15:12:32;6.75;;;2.67;;
45296;SDS011;31040;51.622;10.420;2022-10-10T15:15:00;4.88;;;2.63;;
45296;SDS011;31040;51.622;10.420;2022-10-10T15:17:27;9.50;;;2.78;;
45296;SDS011;31040;51.622;10.420;2022-10-10T15:19:56;6.75;;;2.97;;
45296;SDS011;31040;51.622;10.420;2022-10-10T15:22:24;7.22;;;2.92;;
45296;SDS011;31040;51.622;10.420;2022-10-10T15:24:52;3.60;;;2.63;;
45296;SDS011;31040;51.622;10.420;2022-10-10T15:27:20;4.18;;;2.42;;
45296;SDS011;31040;51.622;10.420;2022-10-10T15:29:47;7.57;;;2.72;;
45296;SDS011;31040;51.622;10.420;2022-10-10T15:32:17;8.35;;;3.10;;
45296;SDS011;31040;51.622;10.420;2022-10-10T15:34:47;5.68;;;3.03;;
45296;SDS011;31040;51.622;10.420;2022-10-10T15:37:15;7.28;;;3.30;;
45296;SDS011;31040;51.622;10.420;2022-10-10T15:39:43;5.35;;;2.63;;
45296;SDS011;31040;51.622;10.420;2022-10-10T15:42:11;7.78;;;3.58;;
45296;SDS011;31040;51.622;10.420;2022-10-10T15:44:47;6.18;;;2.75;;
45296;SDS011;31040;51.622;10.420;2022-10-10T15:47:15;4.25;;;3.10;;
45296;SDS011;31040;51.622;10.420;2022-10-10T15:49:43;9.45;;;3.17;;
45296;SDS011;31040;51.622;10.420;2022-10-10T15:52:10;7.55;;;3.38;;
45296;SDS011;31040;51.622;10.420;2022-10-10T15:54:38;8.90;;;3.97;;
45296;SDS011;31040;51.622;10.420;2022-10-10T15:57:06;8.57;;;4.88;;
45296;SDS011;31040;51.622;10.420;2022-10-10T15:59:33;8.27;;;3.55;;
45296;SDS011;31040;51.622;10.420;2022-10-10T16:02:08;6.80;;;3.55;;
45296;SDS011;31040;51.622;10.420;2022-10-10T16:04:35;8.80;;;3.22;;
45296;SDS011;31040;51.622;10.420;2022-10-10T16:07:03;7.82;;;3.17;;
45296;SDS011;31040;51.622;10.420;2022-10-10T16:09:51;5.72;;;3.15;;
45296;SDS011;31040;51.622;10.420;2022-10-10T16:12:19;7.35;;;3.45;;
45296;SDS011;31040;51.622;10.420;2022-10-10T16:14:46;9.13;;;3.55;;
45296;SDS011;31040;51.622;10.420;2022-10-10T16:17:14;14.25;;;4.03;;
45296;SDS011;31040;51.622;10.420;2022-10-10T16:19:48;5.88;;;3.10;;
45296;SDS011;31040;51.622;10.420;2022-10-10T16:22:16;4.03;;;3.30;;
45296;SDS011;31040;51.622;10.420;2022-10-10T16:24:43;10.25;;;4.35;;
45296;SDS011;31040;51.622;10.420;2022-10-10T16:29:57;9.90;;;3.72;;
45296;SDS011;31040;51.622;10.420;2022-10-10T16:32:24;3.97;;;2.92;;
45296;SDS011;31040;51.622;10.420;2022-10-10T16:34:52;8.30;;;3.17;;
45296;SDS011;31040;51.622;10.420;2022-10-10T16:37:19;7.07;;;3.28;;
45296;SDS011;31040;51.622;10.420;2022-10-10T16:39:47;3.50;;;2.72;;
45296;SDS011;31040;51.622;10.420;2022-10-10T16:42:14;3.42;;;2.80;;
45296;SDS011;31040;51.622;10.420;2022-10-10T16:44:41;5.43;;;3.05;;
45296;SDS011;31040;51.622;10.420;2022-10-10T16:47:08;3.90;;;2.63;;
45296;SDS011;31040;51.622;10.420;2022-10-10T16:49:36;10.00;;;3.42;;
45296;SDS011;31040;51.622;10.420;2022-10-10T16:52:03;8.02;;;3.05;;
45296;SDS011;31040;51.622;10.420;2022-10-10T16:54:31;5.38;;;3.03;;
45296;SDS011;31040;51.622;10.420;2022-10-10T16:56:58;4.50;;;2.63;;
45296;SDS011;31040;51.622;10.420;2022-10-10T17:02:00;6.28;;;3.00;;
45296;SDS011;31040;51.622;10.420;2022-10-10T17:04:28;6.35;;;3.17;;
45296;SDS011;31040;51.622;10.420;2022-10-10T17:06:56;6.30;;;2.60;;
45296;SDS011;31040;51.622;10.420;2022-10-10T17:09:23;8.18;;;4.05;;
45296;SDS011;31040;51.622;10.420;2022-10-10T17:11:50;5.93;;;3.10;;
45296;SDS011;31040;51.622;10.420;2022-10-10T17:14:17;5.80;;;3.00;;